Time;durP1;ratioP1;P1;durP2;ratioP2;P2;SDS_P1;SDS_P2;PMS_P1;PMS_P2;Temp;Humidity;BMP_temperature;BMP_pressure;BME280_temperature;BME280_humidity;BME280_pressure;Samples;Min_cycle;Max_cycle;Signal;HPM_P1;HPM_P2
2021/06/28 00:04:08;;;;;;;13.6;10.5;;;;;;;15.53;100;98703.56;;;;
2021/06/28 00:14:07;;;;;;;15.3;13.2;;;;;;;15.48;100;98693.7;;;;
2021/06/28 00:24:06;;;;;;;13.9;12.3;;;;;;;15.39;100;98684.03;;;;
2021/06/28 00:34:06;;;;;;;13.1;11.3;;;;;;;15.27;100;98687.5;;;;
2021/06/28 00:44:05;;;;;;;13.1;10.1;;;;;;;15.13;100;98685.09;;;;
2021/06/28 00:54:05;;;;;;;14.2;12.7;;;;;;;15.04;100;98687.11;;;;
2021/06/28 01:04:04;;;;;;;16.1;13;;;;;;;14.99;100;98689.25;;;;
2021/06/28 01:14:03;;;;;;;12.7;11.4;;;;;;;14.89;100;98689.66;;;;
2021/06/28 01:24:03;;;;;;;13.3;11.9;;;;;;;14.71;100;98686.3;;;;
2021/06/28 01:34:02;;;;;;;15.3;12.6;;;;;;;14.61;100;98683.98;;;;
2021/06/28 01:44:01;;;;;;;14.7;11.8;;;;;;;14.59;100;98686.22;;;;
2021/06/28 01:54:00;;;;;;;14.1;12.1;;;;;;;14.47;100;98681.52;;;;
2021/06/28 02:04:00;;;;;;;12.9;11.3;;;;;;;14.39;100;98687.02;;;;
2021/06/28 02:13:59;;;;;;;14.8;11.2;;;;;;;14.28;100;98688.48;;;;
2021/06/28 02:23:58;;;;;;;11.7;10.6;;;;;;;14.21;100;98694.43;;;;
2021/06/28 02:33:57;;;;;;;16.5;10.9;;;;;;;14.17;100;98700.83;;;;
2021/06/28 02:43:56;;;;;;;9.9;8.9;;;;;;;13.97;100;98699.67;;;;
2021/06/28 02:53:56;;;;;;;14.9;10.6;;;;;;;13.88;100;98691.56;;;;
2021/06/28 03:03:55;;;;;;;15;11.5;;;;;;;14.02;100;98691.37;;;;
2021/06/28 03:13:54;;;;;;;14.8;11.6;;;;;;;14.24;100;98692.97;;;;
2021/06/28 03:23:53;;;;;;;14.5;10.4;;;;;;;14.43;100;98685.23;;;;
2021/06/28 03:33:53;;;;;;;12.3;10;;;;;;;14.73;100;98688.66;;;;
2021/06/28 03:43:52;;;;;;;13;11.2;;;;;;;15.11;100;98703.65;;;;
2021/06/28 03:53:52;;;;;;;15.4;12.6;;;;;;;15.49;100;98697.21;;;;
2021/06/28 04:03:53;;;;;;;10.5;9.5;;;;;;;15.74;100;98696.13;;;;
2021/06/28 04:13:50;;;;;;;9.8;8.7;;;;;;;16.04;100;98711.08;;;;
2021/06/28 04:23:50;;;;;;;11.1;10;;;;;;;16.32;100;98704.95;;;;
2021/06/28 04:33:49;;;;;;;17.5;10.4;;;;;;;16.93;100;98720.05;;;;
2021/06/28 04:43:49;;;;;;;13.8;8.5;;;;;;;17.42;100;98719.83;;;;
2021/06/28 04:53:49;;;;;;;12.9;8.2;;;;;;;17.93;100;98718.05;;;;
2021/06/28 05:03:48;;;;;;;11.1;7.2;;;;;;;18.45;100;98729.43;;;;
2021/06/28 05:13:48;;;;;;;11.5;8.7;;;;;;;18.91;100;98726.95;;;;
2021/06/28 05:23:48;;;;;;;10.1;7.8;;;;;;;19.25;100;98738.94;;;;
2021/06/28 05:33:48;;;;;;;9;6.8;;;;;;;19.46;100;98744.84;;;;
2021/06/28 05:43:47;;;;;;;8.6;7;;;;;;;19.61;100;98765.81;;;;
2021/06/28 05:53:47;;;;;;;12.1;9.3;;;;;;;20.04;100;98770.91;;;;
2021/06/28 06:03:47;;;;;;;15.9;13.2;;;;;;;20.33;100;98772.2;;;;
2021/06/28 06:13:48;;;;;;;12.9;10.2;;;;;;;20.64;100;98764.83;;;;
2021/06/28 06:23:48;;;;;;;11.8;9.3;;;;;;;20.83;100;98762.75;;;;
2021/06/28 06:33:48;;;;;;;9.7;8.3;;;;;;;21.35;100;98766.56;;;;
2021/06/28 06:43:48;;;;;;;15.7;7.8;;;;;;;21.89;100;98768.72;;;;
2021/06/28 06:53:48;;;;;;;10.4;7.3;;;;;;;22.46;100;98772.75;;;;
2021/06/28 07:03:49;;;;;;;8.6;7.1;;;;;;;22.62;100;98788.97;;;;
2021/06/28 07:13:50;;;;;;;8.4;6.9;;;;;;;22.98;100;98783.32;;;;
2021/06/28 07:23:52;;;;;;;8.4;6.9;;;;;;;23.03;100;98791.22;;;;
2021/06/28 07:33:50;;;;;;;9.9;6.4;;;;;;;23.56;100;98779.68;;;;
2021/06/28 07:43:52;;;;;;;9.5;6;;;;;;;23.52;100;98782.42;;;;
2021/06/28 07:53:51;;;;;;;7.8;5;;;;;;;23.71;100;98795.03;;;;
2021/06/28 08:03:52;;;;;;;8.1;6.1;;;;;;;24.18;100;98793.97;;;;
2021/06/28 08:13:52;;;;;;;8.8;6;;;;;;;24.21;97.59766;98784.13;;;;
2021/06/28 08:23:53;;;;;;;7.4;5.8;;;;;;;24.58;98.31445;98787.26;;;;
2021/06/28 08:33:53;;;;;;;10.8;5;;;;;;;24.83;92.26074;98788.05;;;;
2021/06/28 08:43:54;;;;;;;9.1;6.6;;;;;;;24.82;97.53125;98791.16;;;;
2021/06/28 08:53:55;;;;;;;6.6;4.5;;;;;;;24.99;86.39258;98793.14;;;;
2021/06/28 09:03:55;;;;;;;7.8;6.2;;;;;;;25.35;86.00781;98786.3;;;;
2021/06/28 09:13:56;;;;;;;7.9;6.2;;;;;;;25.78;91.63965;98783.36;;;;
2021/06/28 09:23:58;;;;;;;10.3;7;;;;;;;25.64;85.68945;98788.97;;;;
2021/06/28 09:33:58;;;;;;;7.5;5.2;;;;;;;25.4;80.78809;98794.18;;;;
2021/06/28 09:43:59;;;;;;;7;5;;;;;;;25.9;84.03809;98778.14;;;;
2021/06/28 09:54:00;;;;;;;8.9;4.7;;;;;;;26.67;89.76953;98770.44;;;;
2021/06/28 10:04:04;;;;;;;6.7;4.6;;;;;;;26.4;78.5127;98770.3;;;;
2021/06/28 10:14:02;;;;;;;14.1;5.6;;;;;;;26.27;76.87598;98754.63;;;;
2021/06/28 10:24:02;;;;;;;6.2;4.6;;;;;;;25.96;71.71484;98762.7;;;;
2021/06/28 10:34:03;;;;;;;7.1;4.9;;;;;;;26.26;82.91309;98747.52;;;;
2021/06/28 10:44:04;;;;;;;5.2;3.5;;;;;;;26.82;59.52832;98735.16;;;;
2021/06/28 10:54:06;;;;;;;5.4;3.8;;;;;;;26.32;61.07227;98726.54;;;;
2021/06/28 11:04:08;;;;;;;7.2;4.2;;;;;;;26.68;53.05664;98729.75;;;;
2021/06/28 11:14:07;;;;;;;9.3;4.5;;;;;;;26.79;54.26074;98722.92;;;;
2021/06/28 11:24:08;;;;;;;5;3.5;;;;;;;27.17;54.60059;98725.66;;;;
2021/06/28 11:34:09;;;;;;;16.2;4.4;;;;;;;27.26;58.18457;98712.88;;;;
2021/06/28 11:44:10;;;;;;;6.4;4.3;;;;;;;27.23;58.46289;98712.92;;;;
2021/06/28 11:54:11;;;;;;;6.4;3.8;;;;;;;27.22;54.04199;98703.83;;;;
2021/06/28 12:04:12;;;;;;;8.4;4.2;;;;;;;27.48;57.74219;98689.28;;;;
2021/06/28 12:14:13;;;;;;;16.1;5.1;;;;;;;27.37;54.79004;98682.28;;;;
2021/06/28 12:24:14;;;;;;;4.9;2.9;;;;;;;27.87;57.82715;98677.58;;;;
2021/06/28 12:34:15;;;;;;;7.2;4.1;;;;;;;27.65;56.34668;98672.8;;;;
2021/06/28 12:44:16;;;;;;;5.8;3.4;;;;;;;27.86;54.47168;98664.95;;;;
2021/06/28 12:54:17;;;;;;;8.4;3.2;;;;;;;28.08;51.51953;98657.06;;;;
2021/06/28 13:04:18;;;;;;;6.3;3.7;;;;;;;28.49;56.00293;98646.43;;;;
2021/06/28 13:14:19;;;;;;;5.8;3.1;;;;;;;28.58;48.68555;98648.63;;;;
2021/06/28 13:24:20;;;;;;;5.8;3.1;;;;;;;28.56;49.2168;98637.19;;;;
2021/06/28 13:34:21;;;;;;;6.2;3.7;;;;;;;28.51;51.2959;98645.99;;;;
2021/06/28 13:44:22;;;;;;;5;3.3;;;;;;;29.16;50.37305;98641.48;;;;
2021/06/28 13:54:23;;;;;;;11.2;4.2;;;;;;;29.21;51.86035;98640.99;;;;
2021/06/28 14:04:25;;;;;;;6.7;4.2;;;;;;;29.28;51.63086;98623.42;;;;
2021/06/28 14:14:26;;;;;;;5;3;;;;;;;29.47;48.81738;98634.45;;;;
2021/06/28 14:24:27;;;;;;;5.7;3.9;;;;;;;29.92;49.68555;98637.34;;;;
2021/06/28 14:34:28;;;;;;;6.9;4.2;;;;;;;30.18;49.61719;98629.16;;;;
2021/06/28 14:44:30;;;;;;;6.9;4.5;;;;;;;30.48;51.32813;98628.75;;;;
2021/06/28 14:54:31;;;;;;;6.8;4.7;;;;;;;30.95;47.73633;98627;;;;
2021/06/28 15:04:32;;;;;;;9.1;5;;;;;;;30.3;50.16602;98622.89;;;;
2021/06/28 15:14:34;;;;;;;7.4;4.9;;;;;;;29.85;54.75879;98615.3;;;;
2021/06/28 15:24:36;;;;;;;7.3;5.7;;;;;;;30.74;51.38184;98599.8;;;;
2021/06/28 15:34:36;;;;;;;7.3;6.2;;;;;;;31.08;55.5498;98596.41;;;;
2021/06/28 15:44:38;;;;;;;11.7;6.2;;;;;;;29.31;60.23438;98598.34;;;;
2021/06/28 15:54:41;;;;;;;8.5;6.2;;;;;;;29.9;59.37793;98592.55;;;;
2021/06/28 16:04:41;;;;;;;8.4;5.8;;;;;;;31.78;55.52734;98585.02;;;;
2021/06/28 16:14:43;;;;;;;10.9;4.9;;;;;;;31.14;55.04395;98572.34;;;;
2021/06/28 16:24:45;;;;;;;7.6;5.5;;;;;;;30.51;57.85352;98574.26;;;;
2021/06/28 16:34:46;;;;;;;7.1;4.1;;;;;;;29.13;60.1875;98570.18;;;;
2021/06/28 16:44:49;;;;;;;7.8;4.3;;;;;;;27.98;64.63184;98555.48;;;;
2021/06/28 16:54:49;;;;;;;8.6;5.4;;;;;;;28;66.34375;98545.56;;;;
2021/06/28 17:04:50;;;;;;;6.7;4.7;;;;;;;30.74;59.27246;98551.7;;;;
2021/06/28 17:14:52;;;;;;;6.7;4.3;;;;;;;28.93;61.99316;98556.37;;;;
2021/06/28 17:24:53;;;;;;;7.8;5.1;;;;;;;27.15;67.91016;98548.17;;;;
2021/06/28 17:34:55;;;;;;;16.9;6.5;;;;;;;28.16;64.05664;98546.88;;;;
2021/06/28 17:44:56;;;;;;;7.8;5;;;;;;;29.21;60.20996;98554.14;;;;
2021/06/28 17:54:57;;;;;;;8.4;4.7;;;;;;;28.64;61.77637;98549.84;;;;
2021/06/28 18:04:58;;;;;;;8.6;4.9;;;;;;;28.37;62.88379;98551.99;;;;
2021/06/28 18:15:00;;;;;;;5.7;4.3;;;;;;;26.52;69.08301;98545.86;;;;
2021/06/28 18:25:01;;;;;;;9.5;7.2;;;;;;;25.47;73.07422;98545.77;;;;
2021/06/28 18:35:01;;;;;;;8.6;5.6;;;;;;;24.4;76.9541;98544.05;;;;
2021/06/28 18:45:02;;;;;;;7.7;4.5;;;;;;;23.64;83.16504;98535.58;;;;
2021/06/28 18:55:04;;;;;;;13.3;7.9;;;;;;;22.92;87.76758;98537.48;;;;
2021/06/28 19:05:03;;;;;;;15;11;;;;;;;22.39;91.63672;98550.23;;;;
2021/06/28 19:15:03;;;;;;;8;6.9;;;;;;;21.8;96.84863;98546.77;;;;
2021/06/28 19:25:03;;;;;;;17.1;8.2;;;;;;;21.18;100;98547.86;;;;
2021/06/28 19:35:04;;;;;;;19.4;12.9;;;;;;;21;100;98550.4;;;;
2021/06/28 19:45:04;;;;;;;18.5;11.3;;;;;;;20.68;100;98561.05;;;;
2021/06/28 19:55:04;;;;;;;14.8;9.6;;;;;;;20.37;100;98573.2;;;;
2021/06/28 20:05:04;;;;;;;34.9;23.2;;;;;;;20.13;100;98576.38;;;;
2021/06/28 20:15:04;;;;;;;13;8.9;;;;;;;20.03;100;98558.64;;;;
2021/06/28 20:25:04;;;;;;;13.2;10.4;;;;;;;19.79;100;98577.42;;;;
2021/06/28 20:35:03;;;;;;;10.6;7.9;;;;;;;19.66;100;98579.59;;;;
2021/06/28 20:45:03;;;;;;;13.6;9.9;;;;;;;19.49;100;98569.16;;;;
2021/06/28 20:55:03;;;;;;;11.6;8.5;;;;;;;19.37;100;98569.31;;;;
2021/06/28 21:05:03;;;;;;;14.7;11.7;;;;;;;19.24;100;98573.39;;;;
2021/06/28 21:15:03;;;;;;;24;7;;;;;;;19.27;100;98575.39;;;;
2021/06/28 21:25:02;;;;;;;10.7;7.7;;;;;;;19.32;100;98566.91;;;;
2021/06/28 21:35:02;;;;;;;9.6;7.9;;;;;;;19.34;100;98567.31;;;;
2021/06/28 21:45:02;;;;;;;13.9;10.6;;;;;;;19.2;100;98575.27;;;;
2021/06/28 21:55:02;;;;;;;11.8;8.1;;;;;;;19.09;100;98570.41;;;;
2021/06/28 22:05:01;;;;;;;12.3;8.9;;;;;;;18.98;100;98571.4;;;;
2021/06/28 22:15:01;;;;;;;9.4;6.5;;;;;;;18.83;100;98567.61;;;;
2021/06/28 22:25:01;;;;;;;10;7.6;;;;;;;18.78;100;98567.13;;;;
2021/06/28 22:35:00;;;;;;;10.7;8.3;;;;;;;18.53;100;98572.11;;;;
2021/06/28 22:45:00;;;;;;;9.5;6.8;;;;;;;18.45;100;98567.61;;;;
2021/06/28 22:55:00;;;;;;;11.3;5.9;;;;;;;18.36;100;98561.59;;;;
2021/06/28 23:04:59;;;;;;;12.8;8.8;;;;;;;18.19;100;98549.14;;;;
2021/06/28 23:14:59;;;;;;;11.7;8.6;;;;;;;17.98;100;98548.69;;;;
2021/06/28 23:24:58;;;;;;;9.9;7.9;;;;;;;17.7;100;98535.22;;;;
2021/06/28 23:34:58;;;;;;;10.1;8.7;;;;;;;17.44;100;98522.16;;;;
2021/06/28 23:44:57;;;;;;;11.8;9.1;;;;;;;17.19;100;98515.31;;;;
2021/06/28 23:54:57;;;;;;;11.4;8.3;;;;;;;17;100;98510.59;;;;
